createdAt,value
2023-04-27T00:01:59.446Z,5.40
2023-04-27T00:04:28.001Z,5.40
2023-04-27T00:06:56.209Z,5.40
2023-04-27T00:09:25.604Z,5.50
2023-04-27T00:11:53.330Z,5.50
2023-04-27T00:14:21.339Z,5.50
2023-04-27T00:16:49.382Z,5.50
2023-04-27T00:19:17.256Z,5.40
2023-04-27T00:21:44.999Z,5.50
2023-04-27T00:24:12.765Z,5.40
2023-04-27T00:26:42.076Z,5.40
2023-04-27T00:29:09.853Z,5.40
2023-04-27T00:31:37.714Z,5.30
2023-04-27T00:34:05.718Z,5.30
2023-04-27T00:36:34.781Z,5.30
2023-04-27T00:39:03.752Z,5.20
2023-04-27T00:41:31.497Z,5.20
2023-04-27T00:44:00.590Z,5.10
2023-04-27T00:46:28.855Z,5.10
2023-04-27T00:48:56.945Z,5.00
2023-04-27T00:51:27.899Z,5.00
2023-04-27T00:53:55.796Z,5.00
2023-04-27T00:56:23.685Z,4.80
2023-04-27T00:58:51.555Z,4.80
2023-04-27T01:01:21.321Z,4.80
2023-04-27T01:03:49.547Z,4.80
2023-04-27T01:06:17.401Z,4.80
2023-04-27T01:08:46.469Z,4.80
2023-04-27T01:11:14.222Z,4.90
2023-04-27T01:13:41.985Z,4.90
2023-04-27T01:16:09.775Z,4.80
2023-04-27T01:18:40.560Z,4.80
2023-04-27T01:21:08.372Z,4.70
2023-04-27T01:23:37.558Z,4.70
2023-04-27T01:26:05.637Z,4.60
2023-04-27T01:28:33.457Z,4.60
2023-04-27T01:31:01.244Z,4.60
2023-04-27T01:33:29.029Z,4.60
2023-04-27T01:35:56.764Z,4.60
2023-04-27T01:38:25.038Z,4.60
2023-04-27T01:40:55.160Z,4.70
2023-04-27T01:43:22.924Z,4.80
2023-04-27T01:45:50.767Z,4.80
2023-04-27T01:48:18.574Z,4.80
2023-04-27T01:50:46.423Z,4.80
2023-04-27T01:53:14.185Z,4.80
2023-04-27T01:55:41.936Z,4.80
2023-04-27T01:58:11.085Z,4.80
2023-04-27T02:00:38.821Z,4.70
2023-04-27T02:03:06.731Z,4.70
2023-04-27T02:05:34.540Z,4.80
2023-04-27T02:08:02.305Z,4.80
2023-04-27T02:10:30.089Z,4.80
2023-04-27T02:12:57.938Z,4.80
2023-04-27T02:15:27.079Z,4.80
2023-04-27T02:17:54.981Z,4.80
2023-04-27T02:20:22.896Z,4.70
2023-04-27T02:22:50.690Z,4.70
2023-04-27T02:25:18.525Z,4.70
2023-04-27T02:27:46.515Z,4.70
2023-04-27T02:30:15.300Z,4.60
2023-04-27T02:32:44.960Z,4.70
2023-04-27T02:35:12.851Z,4.70
2023-04-27T02:37:40.875Z,4.70
2023-04-27T02:40:09.892Z,4.70
2023-04-27T02:42:38.700Z,4.70
2023-04-27T02:45:08.298Z,4.80
2023-04-27T02:47:36.424Z,4.80
2023-04-27T02:50:06.172Z,4.80
2023-04-27T02:52:33.956Z,4.80
2023-04-27T02:55:01.728Z,4.80
2023-04-27T02:57:29.728Z,4.70
2023-04-27T02:59:57.511Z,4.60
2023-04-27T03:02:25.370Z,4.60
2023-04-27T03:04:54.760Z,4.50
2023-04-27T03:07:24.032Z,4.50
2023-04-27T03:09:51.829Z,4.50
2023-04-27T03:12:19.566Z,4.50
2023-04-27T03:14:47.300Z,4.40
2023-04-27T03:17:15.028Z,4.40
2023-04-27T03:19:42.781Z,4.30
2023-04-27T03:22:10.567Z,4.30
2023-04-27T03:24:39.660Z,4.30
2023-04-27T03:27:07.433Z,4.30
2023-04-27T03:29:35.295Z,4.30
2023-04-27T03:32:04.232Z,4.40
2023-04-27T03:34:32.363Z,4.40
2023-04-27T03:37:00.143Z,4.50
2023-04-27T03:39:28.744Z,4.50
2023-04-27T03:41:59.072Z,4.50
2023-04-27T03:44:26.812Z,4.50
2023-04-27T03:46:54.584Z,4.50
2023-04-27T03:49:22.915Z,4.40
2023-04-27T03:51:50.692Z,4.40
2023-04-27T03:54:18.454Z,4.40
2023-04-27T03:56:46.552Z,4.40
2023-04-27T03:59:15.808Z,4.40
2023-04-27T04:01:43.866Z,4.40
2023-04-27T04:04:11.869Z,4.40
2023-04-27T04:06:39.825Z,4.40
2023-04-27T04:09:07.723Z,4.40
2023-04-27T04:11:35.532Z,4.50
2023-04-27T04:14:03.387Z,4.50
2023-04-27T04:16:34.669Z,4.60
2023-04-27T04:19:02.457Z,4.60
2023-04-27T04:21:31.716Z,4.70
2023-04-27T04:23:59.466Z,4.70
2023-04-27T04:26:27.410Z,4.70
2023-04-27T04:28:55.766Z,4.70
2023-04-27T04:31:23.594Z,4.70
2023-04-27T04:33:53.046Z,4.70
2023-04-27T04:36:20.827Z,4.80
2023-04-27T04:38:48.603Z,4.80
2023-04-27T04:41:16.455Z,4.80
2023-04-27T04:43:44.212Z,4.90
2023-04-27T04:46:12.007Z,4.90
2023-04-27T04:48:39.800Z,4.90
2023-04-27T04:51:08.992Z,5.00
2023-04-27T04:53:37.038Z,5.00
2023-04-27T04:56:11.455Z,5.00
2023-04-27T04:58:39.552Z,5.10
2023-04-27T05:01:07.698Z,5.10
2023-04-27T05:03:35.607Z,5.10
2023-04-27T05:06:03.441Z,5.10
2023-04-27T05:08:32.569Z,5.20
2023-04-27T05:11:00.363Z,5.20
2023-04-27T05:13:28.926Z,5.20
2023-04-27T05:15:56.722Z,5.30
2023-04-27T05:18:24.490Z,5.30
2023-04-27T05:20:52.257Z,5.30
2023-04-27T05:23:20.013Z,5.30
2023-04-27T05:25:49.112Z,5.40
2023-04-27T05:28:16.845Z,5.50
2023-04-27T05:30:44.643Z,5.60
2023-04-27T05:33:12.469Z,5.70
2023-04-27T05:35:40.288Z,5.70
2023-04-27T05:38:08.060Z,5.80
2023-04-27T05:40:35.877Z,5.90
2023-04-27T05:43:05.649Z,5.90
2023-04-27T05:45:33.653Z,6.00
2023-04-27T05:48:01.670Z,6.00
2023-04-27T05:50:29.455Z,6.10
2023-04-27T05:52:57.210Z,6.10
2023-04-27T05:55:24.972Z,6.20
2023-04-27T05:58:04.577Z,6.20
2023-04-27T06:00:36.906Z,6.30
2023-04-27T06:03:04.883Z,6.30
2023-04-27T06:05:34.237Z,6.50
2023-04-27T06:08:02.070Z,6.60
2023-04-27T06:10:29.914Z,6.60
2023-04-27T06:12:57.622Z,6.80
2023-04-27T06:15:25.371Z,6.90
2023-04-27T06:17:54.508Z,7.00
2023-04-27T06:20:22.700Z,7.10
2023-04-27T06:22:50.521Z,7.20
2023-04-27T06:25:18.355Z,7.40
2023-04-27T06:27:46.441Z,7.50
2023-04-27T06:30:14.579Z,7.70
2023-04-27T06:32:42.429Z,7.80
2023-04-27T06:35:12.024Z,8.10
2023-04-27T06:37:40.009Z,8.10
2023-04-27T06:40:08.598Z,8.30
2023-04-27T06:42:36.411Z,8.30
2023-04-27T06:45:05.580Z,8.40
2023-04-27T06:47:33.409Z,8.40
2023-04-27T06:50:01.186Z,8.40
2023-04-27T06:52:33.147Z,8.40
2023-04-27T06:55:01.044Z,8.50
2023-04-27T06:57:28.858Z,8.70
2023-04-27T06:59:56.606Z,8.50
2023-04-27T07:02:25.610Z,8.60
2023-04-27T07:04:53.676Z,8.60
2023-04-27T07:07:21.541Z,8.70
2023-04-27T07:09:51.011Z,8.60
2023-04-27T07:12:18.828Z,8.70
2023-04-27T07:14:46.654Z,8.80
2023-04-27T07:17:14.396Z,8.80
2023-04-27T07:19:42.163Z,8.90
2023-04-27T07:22:10.001Z,8.90
2023-04-27T07:24:37.733Z,9.00
2023-04-27T07:27:07.088Z,9.10
2023-04-27T07:29:35.219Z,9.30
2023-04-27T07:32:05.654Z,9.40
2023-04-27T07:34:48.995Z,9.60
2023-04-27T07:37:21.100Z,9.80
2023-04-27T07:39:50.248Z,10.00
2023-04-27T07:42:19.476Z,10.20
2023-04-27T07:44:47.283Z,10.40
2023-04-27T07:47:15.095Z,10.60
2023-04-27T07:49:45.433Z,10.80
2023-04-27T07:52:13.327Z,10.90
2023-04-27T07:54:41.414Z,11.10
2023-04-27T07:57:10.273Z,11.30
2023-04-27T07:59:39.748Z,11.30
2023-04-27T08:02:19.120Z,11.40
2023-04-27T08:04:48.613Z,11.50
2023-04-27T08:07:17.558Z,11.60
2023-04-27T08:09:45.777Z,11.70
2023-04-27T08:12:13.664Z,11.80
2023-04-27T08:14:42.711Z,11.90
2023-04-27T08:17:11.258Z,12.10
2023-04-27T08:19:39.124Z,12.30
2023-04-27T08:22:06.915Z,12.60
2023-04-27T08:24:34.970Z,12.70
2023-04-27T08:27:03.253Z,12.90
2023-04-27T08:29:31.412Z,13.10
2023-04-27T08:32:02.665Z,13.20
2023-04-27T08:34:30.610Z,13.30
2023-04-27T08:36:58.430Z,13.50
2023-04-27T08:39:26.232Z,13.70
2023-04-27T08:41:54.420Z,14.00
2023-04-27T08:44:22.242Z,14.00
2023-04-27T08:46:51.372Z,14.10
2023-04-27T08:49:21.641Z,14.10
2023-04-27T08:51:49.636Z,14.10
2023-04-27T08:54:17.363Z,14.10
2023-04-27T08:56:45.121Z,14.10
2023-04-27T08:59:16.935Z,14.10
2023-04-27T09:01:46.867Z,14.10
2023-04-27T09:04:15.252Z,14.20
2023-04-27T09:06:44.433Z,14.30
2023-04-27T09:09:23.296Z,14.50
2023-04-27T09:11:51.157Z,14.70
2023-04-27T09:14:20.836Z,14.80
2023-04-27T09:16:57.125Z,15.00
2023-04-27T09:19:25.860Z,15.10
2023-04-27T09:22:04.983Z,15.40
2023-04-27T09:24:32.749Z,15.50
2023-04-27T09:27:01.601Z,15.70
2023-04-27T09:29:36.641Z,15.80
2023-04-27T09:32:17.174Z,15.90
2023-04-27T09:34:45.745Z,16.10
2023-04-27T09:37:15.724Z,16.40
2023-04-27T09:39:43.881Z,16.60
2023-04-27T09:42:13.199Z,16.60
2023-04-27T09:44:40.964Z,16.60
2023-04-27T09:47:08.952Z,16.70
2023-04-27T09:49:36.821Z,16.90
2023-04-27T09:52:04.749Z,17.00
2023-04-27T09:54:35.497Z,17.10
2023-04-27T09:57:15.377Z,17.10
2023-04-27T09:59:55.543Z,17.10
2023-04-27T10:02:25.974Z,17.20
2023-04-27T10:05:29.255Z,17.40
2023-04-27T10:07:57.329Z,17.60
2023-04-27T10:10:26.415Z,17.70
2023-04-27T10:12:58.430Z,17.70
2023-04-27T10:15:30.457Z,17.70
2023-04-27T10:18:05.997Z,17.80
2023-04-27T10:20:35.716Z,17.80
2023-04-27T10:23:03.562Z,17.90
2023-04-27T10:25:40.148Z,17.90
2023-04-27T10:28:08.178Z,17.90
2023-04-27T10:30:37.959Z,17.90
2023-04-27T10:33:08.333Z,18.00
2023-04-27T10:35:37.684Z,18.00
2023-04-27T10:38:09.490Z,18.20
2023-04-27T10:40:39.281Z,18.20
2023-04-27T10:43:10.945Z,18.30
2023-04-27T10:45:38.813Z,18.50
2023-04-27T10:48:07.295Z,18.60
2023-04-27T10:50:35.499Z,18.80
2023-04-27T10:53:05.147Z,19.00
2023-04-27T10:55:34.063Z,19.00
2023-04-27T10:58:04.150Z,19.00
2023-04-27T11:00:33.258Z,19.00
2023-04-27T11:03:12.527Z,19.00
2023-04-27T11:05:41.183Z,19.00
2023-04-27T11:08:10.376Z,19.10
2023-04-27T11:10:41.081Z,19.30
2023-04-27T11:13:12.974Z,19.50
2023-04-27T11:15:48.875Z,19.50
2023-04-27T11:18:17.678Z,19.60
2023-04-27T11:20:47.686Z,19.40
2023-04-27T11:23:25.374Z,19.10
2023-04-27T11:25:53.390Z,18.90
2023-04-27T11:28:22.957Z,18.90
2023-04-27T11:30:57.047Z,18.90
2023-04-27T11:33:24.930Z,18.60
2023-04-27T11:35:52.720Z,18.60
2023-04-27T11:38:21.637Z,18.50
2023-04-27T11:41:00.900Z,18.70
2023-04-27T11:43:30.035Z,18.70
2023-04-27T11:45:58.628Z,18.50
2023-04-27T11:48:27.969Z,18.40
2023-04-27T11:50:58.980Z,18.40
2023-04-27T11:53:37.827Z,18.40
2023-04-27T11:56:07.744Z,18.50
2023-04-27T11:58:38.298Z,18.50
2023-04-27T12:01:08.621Z,18.50
2023-04-27T12:03:36.581Z,18.20
2023-04-27T12:06:21.534Z,17.60
2023-04-27T12:08:52.423Z,17.50
2023-04-27T12:11:20.708Z,17.40
2023-04-27T12:13:49.825Z,17.30
2023-04-27T12:16:17.726Z,17.40
2023-04-27T12:18:45.525Z,17.40
2023-04-27T12:21:14.174Z,17.50
2023-04-27T12:23:41.974Z,17.60
2023-04-27T12:26:10.120Z,17.90
2023-04-27T12:28:38.410Z,18.30
2023-04-27T12:31:08.154Z,18.70
2023-04-27T12:33:36.073Z,19.00
2023-04-27T12:36:03.850Z,19.10
2023-04-27T12:38:31.764Z,19.20
2023-04-27T12:41:02.684Z,19.30
2023-04-27T12:43:30.604Z,19.20
2023-04-27T12:45:58.418Z,19.00
2023-04-27T12:48:27.595Z,18.60
2023-04-27T12:50:55.410Z,18.20
2023-04-27T12:53:23.172Z,18.00
2023-04-27T12:55:50.944Z,17.80
2023-04-27T12:58:18.697Z,17.70
2023-04-27T13:00:46.692Z,17.80
2023-04-27T13:03:14.641Z,18.00
2023-04-27T13:05:44.315Z,18.00
2023-04-27T13:08:12.092Z,17.90
2023-04-27T13:10:41.207Z,17.90
2023-04-27T13:13:09.419Z,18.10
2023-04-27T13:15:38.447Z,18.10
2023-04-27T13:18:06.598Z,18.10
2023-04-27T13:20:34.583Z,17.80
2023-04-27T13:23:05.095Z,17.50
2023-04-27T13:25:32.859Z,17.40
2023-04-27T13:28:00.602Z,17.30
2023-04-27T13:30:28.432Z,17.40
2023-04-27T13:33:04.373Z,17.60
2023-04-27T13:35:38.528Z,17.80
2023-04-27T13:38:07.753Z,18.20
2023-04-27T13:40:35.762Z,18.30
2023-04-27T13:43:03.531Z,18.30
2023-04-27T13:45:31.745Z,18.20
2023-04-27T13:47:59.545Z,18.00
2023-04-27T13:50:27.417Z,17.90
2023-04-27T13:52:56.132Z,17.70
2023-04-27T13:55:25.803Z,17.70
2023-04-27T13:57:53.570Z,17.60
2023-04-27T14:00:21.694Z,17.40
2023-04-27T14:02:49.580Z,17.30
2023-04-27T14:05:17.531Z,17.30
2023-04-27T14:07:45.314Z,17.20
2023-04-27T14:10:14.673Z,17.20
2023-04-27T14:12:43.844Z,17.10
2023-04-27T14:15:11.910Z,17.20
2023-04-27T14:17:39.707Z,17.20
2023-04-27T14:20:09.505Z,17.20
2023-04-27T14:22:37.325Z,17.10
2023-04-27T14:25:05.747Z,17.10
2023-04-27T14:27:33.566Z,17.10
2023-04-27T14:30:03.722Z,17.10
2023-04-27T14:32:31.583Z,17.10
2023-04-27T14:34:59.493Z,17.00
2023-04-27T14:37:27.234Z,17.00
2023-04-27T14:39:55.030Z,16.90
2023-04-27T14:42:23.151Z,16.80
2023-04-27T14:44:51.197Z,16.80
2023-04-27T14:47:20.510Z,16.80
2023-04-27T14:49:48.316Z,16.80
2023-04-27T14:52:16.062Z,16.80
2023-04-27T14:54:43.811Z,16.80
2023-04-27T14:57:11.561Z,16.70
2023-04-27T14:59:39.360Z,16.60
2023-04-27T15:02:07.453Z,16.50
2023-04-27T15:04:37.603Z,16.50
2023-04-27T15:07:05.513Z,16.60
2023-04-27T15:09:33.270Z,16.60
2023-04-27T15:12:01.832Z,16.70
2023-04-27T15:14:29.577Z,16.80
2023-04-27T15:16:57.334Z,16.80
2023-04-27T15:19:25.064Z,16.80
2023-04-27T15:21:54.275Z,16.80
2023-04-27T15:24:22.030Z,16.70
2023-04-27T15:26:49.780Z,16.70
2023-04-27T15:29:18.296Z,16.70
2023-04-27T15:31:48.340Z,16.80
2023-04-27T15:34:16.227Z,16.90
2023-04-27T15:36:43.991Z,17.00
2023-04-27T15:39:13.200Z,17.00
2023-04-27T15:41:41.466Z,17.00
2023-04-27T15:44:09.210Z,16.90
2023-04-27T15:46:37.012Z,16.80
2023-04-27T15:49:04.802Z,16.80
2023-04-27T15:51:32.622Z,16.70
2023-04-27T15:54:00.401Z,16.80
2023-04-27T15:56:30.776Z,16.90
2023-04-27T15:58:58.972Z,16.90
2023-04-27T16:01:27.368Z,16.90
2023-04-27T16:03:55.311Z,16.90
2023-04-27T16:06:23.133Z,16.80
2023-04-27T16:08:50.906Z,16.70
2023-04-27T16:11:18.682Z,16.70
2023-04-27T16:13:47.821Z,16.70
2023-04-27T16:16:15.854Z,16.70
2023-04-27T16:18:43.697Z,16.70
2023-04-27T16:21:11.555Z,16.70
2023-04-27T16:23:39.337Z,16.70
2023-04-27T16:26:07.254Z,16.70
2023-04-27T16:28:36.069Z,16.60
2023-04-27T16:31:05.836Z,16.50
2023-04-27T16:33:33.708Z,16.40
2023-04-27T16:36:01.515Z,16.30
2023-04-27T16:38:29.243Z,16.20
2023-04-27T16:40:57.401Z,16.10
2023-04-27T16:43:26.032Z,16.10
2023-04-27T16:45:53.794Z,16.00
2023-04-27T16:48:22.999Z,16.00
2023-04-27T16:50:51.823Z,15.90
2023-04-27T16:53:21.269Z,15.80
2023-04-27T16:55:49.293Z,15.80
2023-04-27T16:58:17.075Z,15.60
2023-04-27T17:00:44.854Z,15.60
2023-04-27T17:03:12.936Z,15.50
2023-04-27T17:05:42.116Z,15.40
2023-04-27T17:08:10.681Z,15.40
2023-04-27T17:10:38.462Z,15.30
2023-04-27T17:13:07.574Z,15.30
2023-04-27T17:15:35.431Z,15.30
2023-04-27T17:18:04.995Z,15.30
2023-04-27T17:20:32.974Z,15.20
2023-04-27T17:23:02.129Z,15.20
2023-04-27T17:25:29.880Z,15.20
2023-04-27T17:27:59.512Z,15.10
2023-04-27T17:30:28.598Z,15.10
2023-04-27T17:32:56.395Z,15.10
2023-04-27T17:35:24.447Z,15.00
2023-04-27T17:37:53.027Z,15.00
2023-04-27T17:40:22.723Z,14.90
2023-04-27T17:42:50.884Z,14.80
2023-04-27T17:45:19.750Z,14.70
2023-04-27T17:47:47.555Z,14.50
2023-04-27T17:50:15.556Z,14.20
2023-04-27T17:52:43.278Z,14.00
2023-04-27T17:55:11.041Z,13.80
2023-04-27T17:57:40.684Z,13.50
2023-04-27T18:00:10.167Z,13.30
2023-04-27T18:02:38.222Z,13.10
2023-04-27T18:05:06.604Z,13.00
2023-04-27T18:07:36.154Z,12.90
2023-04-27T18:10:04.093Z,12.90
2023-04-27T18:12:31.911Z,12.90
2023-04-27T18:15:03.832Z,12.90
2023-04-27T18:17:32.845Z,12.80
2023-04-27T18:20:08.714Z,12.80
2023-04-27T18:22:39.251Z,12.70
2023-04-27T18:25:07.914Z,12.70
2023-04-27T18:27:37.328Z,12.70
2023-04-27T18:30:08.071Z,12.70
2023-04-27T18:32:35.985Z,12.70
2023-04-27T18:35:04.643Z,12.60
2023-04-27T18:37:33.066Z,12.50
2023-04-27T18:40:00.903Z,12.40
2023-04-27T18:42:28.681Z,12.40
2023-04-27T18:44:59.920Z,12.30
2023-04-27T18:47:29.872Z,12.30
2023-04-27T18:49:57.661Z,12.30
2023-04-27T18:52:25.430Z,12.30
2023-04-27T18:54:53.199Z,12.20
2023-04-27T18:57:20.977Z,12.20
2023-04-27T18:59:48.786Z,12.10
2023-04-27T19:02:16.568Z,11.40
2023-04-27T19:04:57.085Z,11.80
2023-04-27T19:07:29.789Z,11.60
2023-04-27T19:09:57.572Z,11.40
2023-04-27T19:12:25.632Z,11.20
2023-04-27T19:14:53.363Z,11.10
2023-04-27T19:17:21.340Z,10.90
2023-04-27T19:19:50.572Z,10.70
2023-04-27T19:22:18.364Z,10.40
2023-04-27T19:24:46.123Z,10.20
2023-04-27T19:27:13.950Z,10.10
2023-04-27T19:29:52.987Z,10.00
2023-04-27T19:32:21.300Z,9.80
2023-04-27T19:34:50.543Z,9.70
2023-04-27T19:37:18.306Z,9.60
2023-04-27T19:39:46.174Z,9.50
2023-04-27T19:42:15.023Z,9.40
2023-04-27T19:44:43.012Z,9.30
2023-04-27T19:47:11.362Z,9.20
2023-04-27T19:49:39.670Z,9.10
2023-04-27T19:52:08.760Z,9.10
2023-04-27T19:54:38.092Z,9.10
2023-04-27T19:57:06.073Z,9.10
2023-04-27T19:59:33.866Z,9.10
2023-04-27T20:02:01.735Z,9.10
2023-04-27T20:04:29.887Z,9.20
2023-04-27T20:06:57.816Z,9.10
2023-04-27T20:09:26.909Z,9.00
2023-04-27T20:11:55.565Z,9.00
2023-04-27T20:14:23.379Z,8.90
2023-04-27T20:16:51.188Z,8.90
2023-04-27T20:19:20.662Z,8.80
2023-04-27T20:21:48.599Z,8.70
2023-04-27T20:24:16.824Z,8.70
2023-04-27T20:26:46.448Z,8.60
2023-04-27T20:29:14.491Z,8.50
2023-04-27T20:31:42.358Z,8.50
2023-04-27T20:34:10.132Z,8.40
2023-04-27T20:36:37.981Z,8.30
2023-04-27T20:39:06.171Z,8.40
2023-04-27T20:41:34.609Z,8.20
2023-04-27T20:44:03.935Z,8.20
2023-04-27T20:46:31.925Z,8.10
2023-04-27T20:48:59.650Z,8.10
2023-04-27T20:51:27.766Z,8.10
2023-04-27T20:53:55.798Z,8.10
2023-04-27T20:56:23.583Z,8.10
2023-04-27T20:58:51.414Z,8.20
2023-04-27T21:01:20.573Z,8.20
2023-04-27T21:03:48.550Z,8.20
2023-04-27T21:06:16.447Z,8.10
2023-04-27T21:08:44.230Z,8.00
2023-04-27T21:11:12.305Z,7.90
2023-04-27T21:13:40.083Z,7.80
2023-04-27T21:16:07.964Z,7.70
2023-04-27T21:18:37.164Z,7.60
2023-04-27T21:21:05.070Z,7.50
2023-04-27T21:23:35.282Z,7.40
2023-04-27T21:26:03.050Z,7.30
2023-04-27T21:28:30.854Z,7.30
2023-04-27T21:30:58.607Z,7.20
2023-04-27T21:33:26.417Z,7.20
2023-04-27T21:35:55.544Z,7.20
2023-04-27T21:38:23.303Z,7.10
2023-04-27T21:40:51.158Z,7.10
2023-04-27T21:43:18.927Z,7.00
2023-04-27T21:45:46.654Z,7.00
2023-04-27T21:48:14.400Z,7.00
2023-04-27T21:50:42.179Z,7.00
2023-04-27T21:53:11.418Z,7.10
2023-04-27T21:55:39.175Z,7.10
2023-04-27T21:58:06.891Z,7.20
2023-04-27T22:00:34.818Z,7.30
2023-04-27T22:03:02.723Z,7.30
2023-04-27T22:05:33.259Z,7.40
2023-04-27T22:08:01.021Z,7.50
2023-04-27T22:10:30.234Z,7.50
2023-04-27T22:13:00.343Z,7.60
2023-04-27T22:15:30.485Z,7.60
2023-04-27T22:17:59.294Z,7.70
2023-04-27T22:20:27.082Z,7.70
2023-04-27T22:22:54.822Z,7.70
2023-04-27T22:25:22.684Z,7.80
2023-04-27T22:27:51.758Z,7.70
2023-04-27T22:30:19.689Z,7.80
2023-04-27T22:32:47.529Z,7.80
2023-04-27T22:35:25.818Z,7.80
2023-04-27T22:37:55.571Z,7.80
2023-04-27T22:40:24.212Z,7.80
2023-04-27T22:42:53.413Z,7.90
2023-04-27T22:45:21.144Z,7.90
2023-04-27T22:47:49.330Z,8.00
2023-04-27T22:50:17.550Z,8.00
2023-04-27T22:52:45.438Z,8.00
2023-04-27T22:55:13.892Z,8.00
2023-04-27T22:57:41.906Z,8.00
2023-04-27T23:00:12.309Z,8.10
2023-04-27T23:02:40.691Z,8.10
2023-04-27T23:05:09.355Z,8.10
2023-04-27T23:07:37.182Z,8.10
2023-04-27T23:10:05.772Z,8.00
2023-04-27T23:12:34.077Z,8.10
2023-04-27T23:15:01.854Z,8.10
2023-04-27T23:17:31.425Z,8.00
2023-04-27T23:19:59.756Z,8.00
2023-04-27T23:22:28.079Z,8.10
2023-04-27T23:24:56.116Z,8.10
2023-04-27T23:27:24.709Z,8.10
2023-04-27T23:29:52.913Z,8.10
2023-04-27T23:32:20.928Z,8.20
2023-04-27T23:34:53.941Z,8.20
2023-04-27T23:37:22.310Z,8.20
2023-04-27T23:39:50.028Z,8.30
2023-04-27T23:42:17.837Z,8.30
2023-04-27T23:44:45.587Z,8.30
2023-04-27T23:47:13.845Z,8.40
2023-04-27T23:49:44.389Z,8.40
2023-04-27T23:52:13.749Z,8.50
2023-04-27T23:54:41.490Z,8.40
2023-04-27T23:57:09.271Z,8.40
2023-04-27T23:59:37.375Z,8.40
